Time;durP1;ratioP1;P1;durP2;ratioP2;P2;SDS_P1;SDS_P2;PMS_P1;PMS_P2;Temp;Humidity;BMP_temperature;BMP_pressure;BME280_temperature;BME280_humidity;BME280_pressure;Samples;Min_cycle;Max_cycle;Signal;HPM_P1;HPM_P2
2023/12/18 00:01:42;;;;;;;54.35;23.42;;;2.50;99.90;;;;;;5051781;28;20519;-80
2023/12/18 00:04:07;;;;;;;68.50;22.75;;;2.40;99.90;;;;;;5056967;28;20025;-81
2023/12/18 00:06:33;;;;;;;56.20;22.77;;;2.30;99.90;;;;;;5052223;28;20545;-81
2023/12/18 00:08:59;;;;;;;61.55;23.15;;;2.40;99.90;;;;;;5045166;28;20036;-83
2023/12/18 00:11:24;;;;;;;73.30;22.77;;;2.40;99.90;;;;;;5060408;28;20025;-81
2023/12/18 00:13:50;;;;;;;62.55;23.40;;;2.40;99.90;;;;;;5052267;28;20036;-81
2023/12/18 00:16:15;;;;;;;65.10;20.27;;;2.40;99.90;;;;;;5066956;28;20056;-80
2023/12/18 00:18:41;;;;;;;53.60;21.83;;;4.10;99.90;;;;;;5062145;28;20028;-81
2023/12/18 00:21:07;;;;;;;64.13;22.02;;;2.30;99.90;;;;;;5041170;28;20485;-80
2023/12/18 00:23:33;;;;;;;52.97;20.35;;;2.30;99.90;;;;;;5043324;28;20028;-82
2023/12/18 00:25:58;;;;;;;53.90;21.02;;;2.30;99.90;;;;;;5057648;28;20047;-83
2023/12/18 00:28:24;;;;;;;59.28;19.85;;;2.30;99.90;;;;;;5066031;28;20029;-81
2023/12/18 00:30:50;;;;;;;62.75;19.95;;;2.30;99.90;;;;;;5078621;28;20025;-82
2023/12/18 00:33:15;;;;;;;54.03;21.55;;;2.20;99.90;;;;;;5070437;28;20051;-81
2023/12/18 00:35:41;;;;;;;51.72;20.83;;;4.90;99.90;;;;;;5048142;28;20471;-80
2023/12/18 00:38:06;;;;;;;65.05;21.38;;;2.10;99.90;;;;;;5056243;28;20051;-84
2023/12/18 00:40:32;;;;;;;66.57;21.38;;;2.10;99.90;;;;;;5084941;28;20021;-84
2023/12/18 00:42:58;;;;;;;53.92;21.35;;;2.20;99.90;;;;;;5073389;28;20091;-84
2023/12/18 00:45:23;;;;;;;53.28;20.15;;;2.40;99.90;;;;;;5066081;28;20424;-84
2023/12/18 00:47:49;;;;;;;61.15;20.50;;;2.20;99.90;;;;;;5073278;28;20032;-84
2023/12/18 00:50:15;;;;;;;48.20;19.33;;;2.00;99.90;;;;;;5061594;28;20021;-87
2023/12/18 00:52:41;;;;;;;54.92;20.90;;;2.20;99.90;;;;;;5068285;28;20022;-84
2023/12/18 00:55:07;;;;;;;53.33;21.42;;;2.20;99.90;;;;;;5074091;28;20005;-85
2023/12/18 00:57:33;;;;;;;53.40;20.83;;;2.10;99.90;;;;;;5061475;28;20044;-85
2023/12/18 00:59:59;;;;;;;54.17;21.63;;;2.20;99.90;;;;;;5060071;28;20020;-84
2023/12/18 01:02:25;;;;;;;49.55;21.38;;;2.40;99.90;;;;;;5064572;28;20036;-85
2023/12/18 01:04:51;;;;;;;48.47;20.67;;;;;;;;;;5071483;28;20044;-85
2023/12/18 01:07:16;;;;;;;52.70;22.38;;;2.20;99.90;;;;;;5079198;28;20092;-83
2023/12/18 01:09:42;;;;;;;50.45;23.05;;;2.50;99.90;;;;;;5061478;28;20025;-84
2023/12/18 01:12:08;;;;;;;56.75;23.08;;;2.20;99.90;;;;;;5043615;28;20047;-83
2023/12/18 01:14:34;;;;;;;55.15;21.27;;;2.20;99.90;;;;;;5041518;28;20025;-82
2023/12/18 01:17:00;;;;;;;68.68;20.90;;;2.10;99.90;;;;;;5046169;28;20025;-85
2023/12/18 01:19:26;;;;;;;55.85;21.23;;;;;;;;;;5068213;28;20112;-84
2023/12/18 01:21:52;;;;;;;46.97;20.15;;;;;;;;;;5053324;28;20026;-84
2023/12/18 01:24:18;;;;;;;49.35;21.02;;;2.00;99.90;;;;;;5061622;28;20036;-79
2023/12/18 01:26:43;;;;;;;50.50;21.27;;;2.00;99.90;;;;;;5042980;28;20029;-81
2023/12/18 01:29:09;;;;;;;58.15;20.95;;;;;;;;;;5043788;28;20498;-83
2023/12/18 01:31:35;;;;;;;56.50;22.55;;;2.00;99.90;;;;;;5038111;28;20036;-81
2023/12/18 01:34:01;;;;;;;54.28;22.35;;;;;;;;;;5043919;28;20033;-82
2023/12/18 01:36:27;;;;;;;56.50;22.48;;;2.00;99.90;;;;;;5052305;28;20029;-82
2023/12/18 01:38:53;;;;;;;50.75;21.02;;;2.00;99.90;;;;;;5052721;28;20493;-80
2023/12/18 01:41:19;;;;;;;48.88;21.65;;;2.00;99.90;;;;;;5051400;28;20032;-82
2023/12/18 01:43:44;;;;;;;54.17;21.33;;;2.10;99.90;;;;;;5052520;28;20523;-81
2023/12/18 01:46:17;;;;;;;54.33;20.63;;;2.10;99.90;;;;;;5047581;28;20025;-81
2023/12/18 01:48:43;;;;;;;50.88;22.45;;;2.10;99.90;;;;;;5050923;28;20029;-80
2023/12/18 01:51:09;;;;;;;46.40;21.58;;;2.10;99.90;;;;;;5069351;28;20024;-82
2023/12/18 01:53:42;;;;;;;55.95;21.58;;;2.10;99.90;;;;;;5072816;28;20080;-82
2023/12/18 01:56:09;;;;;;;51.92;21.00;;;2.10;99.90;;;;;;5079815;28;20025;-85
2023/12/18 01:58:36;;;;;;;43.65;18.67;;;2.10;99.90;;;;;;5075270;28;20033;-83
2023/12/18 02:01:03;;;;;;;40.17;19.92;;;;;;;;;;5036003;28;20028;-83
2023/12/18 02:03:29;;;;;;;50.75;20.50;;;;;;;;;;5075028;28;20036;-80
2023/12/18 02:05:56;;;;;;;41.95;19.73;;;2.10;99.90;;;;;;5054947;28;20037;-80
2023/12/18 02:08:23;;;;;;;44.60;20.55;;;;;;;;;;5055082;28;20051;-80
2023/12/18 02:10:49;;;;;;;65.25;21.13;;;2.00;99.90;;;;;;5062916;28;20492;-80
2023/12/18 02:13:15;;;;;;;40.10;20.05;;;5.80;99.90;;;;;;5066116;28;20036;-82
2023/12/18 02:15:41;;;;;;;46.60;21.88;;;2.00;99.90;;;;;;5052233;28;20028;-79
2023/12/18 02:18:06;;;;;;;40.53;19.60;;;2.00;99.90;;;;;;5052127;28;20029;-81
2023/12/18 02:20:32;;;;;;;43.33;19.48;;;2.10;99.90;;;;;;5065415;28;20110;-80
2023/12/18 02:22:58;;;;;;;36.55;19.80;;;;;;;;;;5056071;28;20028;-83
2023/12/18 02:25:24;;;;;;;42.97;20.40;;;2.20;99.90;;;;;;5044133;28;20029;-82
2023/12/18 02:27:49;;;;;;;41.20;19.65;;;4.10;99.90;;;;;;5050957;28;20037;-79
2023/12/18 02:30:17;;;;;;;34.92;19.10;;;2.20;99.90;;;;;;5062312;28;20546;-82
2023/12/18 02:32:43;;;;;;;35.42;19.50;;;;;;;;;;5067134;28;20104;-82
2023/12/18 02:35:09;;;;;;;33.85;19.27;;;2.30;99.90;;;;;;5042970;28;20097;-79
2023/12/18 02:37:35;;;;;;;34.72;18.52;;;2.20;99.90;;;;;;5042959;28;20106;-82
2023/12/18 02:40:01;;;;;;;37.78;18.55;;;2.30;99.90;;;;;;5045326;28;20034;-84
2023/12/18 02:42:27;;;;;;;33.88;17.25;;;2.40;99.90;;;;;;5048289;28;20024;-79
2023/12/18 02:44:53;;;;;;;33.80;17.38;;;2.20;99.90;;;;;;5054680;28;20120;-82
2023/12/18 02:47:19;;;;;;;30.27;16.50;;;2.20;99.90;;;;;;5050456;28;20023;-82
2023/12/18 02:49:45;;;;;;;35.55;18.20;;;2.20;99.90;;;;;;5047177;28;20022;-83
2023/12/18 02:52:11;;;;;;;31.98;16.52;;;2.20;99.90;;;;;;5072462;28;20416;-82
2023/12/18 02:54:37;;;;;;;32.45;17.35;;;2.20;99.90;;;;;;5052918;28;20033;-83
2023/12/18 02:57:03;;;;;;;41.53;17.38;;;;;;;;;;5047256;28;20017;-82
2023/12/18 02:59:28;;;;;;;33.95;17.67;;;2.20;99.90;;;;;;5063452;28;20031;-81
2023/12/18 03:01:54;;;;;;;33.17;17.17;;;2.20;99.90;;;;;;5053900;28;20061;-85
2023/12/18 03:04:20;;;;;;;31.17;17.02;;;3.30;99.90;;;;;;5043556;28;20053;-82
2023/12/18 03:06:49;;;;;;;33.72;17.35;;;2.20;99.90;;;;;;5060757;28;20025;-80
2023/12/18 03:09:15;;;;;;;34.53;17.95;;;2.10;99.90;;;;;;5051455;28;20029;-83
2023/12/18 03:11:43;;;;;;;31.45;17.63;;;2.10;99.90;;;;;;5059191;28;20028;-83
2023/12/18 03:14:10;;;;;;;30.90;15.82;;;2.10;99.90;;;;;;5058924;28;20466;-81
2023/12/18 03:16:39;;;;;;;35.03;17.60;;;2.20;99.90;;;;;;5053982;28;20033;-85
2023/12/18 03:19:04;;;;;;;30.25;15.60;;;2.10;99.90;;;;;;5041350;28;20622;-82
2023/12/18 03:21:30;;;;;;;30.23;15.70;;;2.20;99.90;;;;;;5051308;28;20753;-80
2023/12/18 03:23:56;;;;;;;32.70;15.98;;;;;;;;;;5047943;28;20088;-84
2023/12/18 03:26:22;;;;;;;30.10;15.50;;;;;;;;;;5076190;28;20036;-82
2023/12/18 03:28:48;;;;;;;28.15;15.05;;;;;;;;;;5063112;28;20036;-80
2023/12/18 03:31:14;;;;;;;29.75;16.85;;;2.10;99.90;;;;;;5051477;28;20242;-80
2023/12/18 03:33:41;;;;;;;29.65;15.32;;;2.20;99.90;;;;;;5045725;28;20029;-81
2023/12/18 03:36:07;;;;;;;32.65;17.25;;;2.20;99.90;;;;;;5048099;28;20109;-81
2023/12/18 03:38:33;;;;;;;28.77;16.77;;;2.10;99.90;;;;;;5065402;28;20075;-81
2023/12/18 03:40:59;;;;;;;30.88;16.92;;;2.10;99.90;;;;;;5057713;28;20040;-80
2023/12/18 03:43:25;;;;;;;29.08;15.80;;;2.10;99.90;;;;;;5050640;28;20044;-80
2023/12/18 03:45:51;;;;;;;30.65;16.17;;;2.10;99.90;;;;;;5048202;28;20120;-84
2023/12/18 03:48:18;;;;;;;29.52;15.80;;;;;;;;;;5057792;28;20552;-85
2023/12/18 03:50:43;;;;;;;32.33;16.35;;;2.10;99.90;;;;;;5055876;28;20049;-81
2023/12/18 03:53:09;;;;;;;29.58;16.23;;;3.90;99.90;;;;;;5052102;28;20032;-84
2023/12/18 03:55:35;;;;;;;28.02;15.85;;;;;;;;;;5050993;28;20096;-83
2023/12/18 03:58:01;;;;;;;28.58;15.50;;;2.10;99.90;;;;;;5053304;28;20094;-81
2023/12/18 04:00:27;;;;;;;27.33;15.25;;;2.10;99.90;;;;;;5071275;28;20029;-82
2023/12/18 04:02:53;;;;;;;29.20;15.68;;;5.60;99.90;;;;;;5047885;28;20025;-84
2023/12/18 04:05:19;;;;;;;27.00;15.30;;;2.10;99.90;;;;;;5042857;28;20164;-80
2023/12/18 04:07:45;;;;;;;31.92;15.88;;;5.30;99.90;;;;;;5049206;28;20032;-80
2023/12/18 04:10:10;;;;;;;29.15;15.80;;;2.00;99.90;;;;;;5036821;28;20025;-82
2023/12/18 04:12:36;;;;;;;29.02;15.70;;;2.00;99.90;;;;;;5047292;28;20028;-79
2023/12/18 04:15:02;;;;;;;27.52;15.55;;;5.50;99.90;;;;;;5057547;28;20029;-79
2023/12/18 04:17:28;;;;;;;29.08;15.70;;;;;;;;;;5069986;28;20020;-79
2023/12/18 04:19:54;;;;;;;28.90;14.35;;;;;;;;;;5045503;28;20108;-80
2023/12/18 04:22:20;;;;;;;29.80;15.18;;;;;;;;;;5044082;28;20048;-80
2023/12/18 04:24:46;;;;;;;26.85;13.85;;;2.10;99.90;;;;;;5049005;28;20045;-80
2023/12/18 04:27:11;;;;;;;28.85;15.18;;;2.10;99.90;;;;;;5046176;28;20063;-80
2023/12/18 04:29:37;;;;;;;25.67;14.43;;;2.10;99.90;;;;;;5055665;28;20033;-79
2023/12/18 04:32:07;;;;;;;28.08;15.70;;;1.90;99.90;;;;;;5051302;28;20561;-81
2023/12/18 04:34:32;;;;;;;27.38;14.57;;;1.90;99.90;;;;;;5044097;28;20027;-80
2023/12/18 04:36:58;;;;;;;30.27;16.10;;;2.00;99.90;;;;;;5039337;28;20112;-79
2023/12/18 04:39:24;;;;;;;28.80;15.68;;;1.80;99.90;;;;;;5058596;28;20039;-80
2023/12/18 04:41:49;;;;;;;29.48;15.90;;;1.70;99.90;;;;;;5048425;28;20484;-79
2023/12/18 04:44:16;;;;;;;32.47;17.00;;;1.70;99.90;;;;;;5049204;28;20780;-79
2023/12/18 04:46:42;;;;;;;30.90;16.30;;;1.70;99.90;;;;;;5046651;28;20027;-82
2023/12/18 04:49:12;;;;;;;30.10;16.63;;;1.80;99.90;;;;;;5040057;28;20032;-82
2023/12/18 04:51:38;;;;;;;33.78;17.17;;;1.80;99.90;;;;;;5054632;28;20025;-81
2023/12/18 04:54:04;;;;;;;36.20;16.02;;;1.80;99.90;;;;;;5049584;28;20045;-79
2023/12/18 04:56:29;;;;;;;52.00;15.70;;;1.80;99.90;;;;;;5058768;28;20115;-82
2023/12/18 04:58:55;;;;;;;37.38;16.15;;;1.80;99.90;;;;;;5071256;28;20108;-82
2023/12/18 05:01:21;;;;;;;29.88;15.98;;;1.70;99.90;;;;;;5047594;28;20134;-81
2023/12/18 05:03:46;;;;;;;33.60;16.08;;;2.80;99.90;;;;;;5048411;28;20044;-81
2023/12/18 05:06:29;;;;;;;31.77;15.15;;;5.10;99.90;;;;;;5051830;28;20024;-82
2023/12/18 05:08:55;;;;;;;29.23;15.98;;;1.60;99.90;;;;;;5047022;28;20085;-81
2023/12/18 05:11:24;;;;;;;33.92;16.70;;;1.60;99.90;;;;;;5060402;28;20032;-82
2023/12/18 05:13:50;;;;;;;32.85;17.30;;;;;;;;;;5041668;28;20022;-84
2023/12/18 05:16:17;;;;;;;29.90;15.43;;;1.60;99.90;;;;;;5043727;28;20029;-84
2023/12/18 05:18:43;;;;;;;33.38;16.88;;;3.50;99.90;;;;;;5050115;28;20032;-82
2023/12/18 05:21:10;;;;;;;33.78;16.77;;;1.70;99.90;;;;;;5075524;28;20040;-79
2023/12/18 05:23:36;;;;;;;30.33;16.25;;;1.70;99.90;;;;;;5066592;28;20483;-84
2023/12/18 05:26:02;;;;;;;30.83;16.33;;;1.80;99.90;;;;;;5070075;28;20029;-83
2023/12/18 05:28:28;;;;;;;29.55;15.70;;;1.80;99.90;;;;;;5046103;28;20444;-84
2023/12/18 05:30:53;;;;;;;42.22;16.40;;;1.80;99.90;;;;;;5053609;28;20029;-79
2023/12/18 05:33:19;;;;;;;30.20;16.20;;;1.80;99.90;;;;;;5067832;28;20025;-84
2023/12/18 05:35:45;;;;;;;29.73;15.63;;;1.80;99.90;;;;;;5051377;28;20035;-85
2023/12/18 05:38:11;;;;;;;31.13;16.67;;;1.90;99.90;;;;;;5062120;28;20124;-81
2023/12/18 05:40:37;;;;;;;31.58;15.70;;;1.80;99.90;;;;;;5062991;28;20033;-84
2023/12/18 05:43:04;;;;;;;30.33;16.13;;;1.80;99.90;;;;;;5044217;28;20088;-81
2023/12/18 05:45:31;;;;;;;30.85;16.13;;;1.90;99.90;;;;;;5048025;28;20025;-81
2023/12/18 05:47:57;;;;;;;34.20;15.55;;;;;;;;;;5038567;28;20033;-79
2023/12/18 05:50:22;;;;;;;32.40;15.60;;;1.80;99.90;;;;;;5050348;28;20017;-82
2023/12/18 05:52:48;;;;;;;31.38;15.43;;;1.80;99.90;;;;;;5043372;28;20504;-82
2023/12/18 05:55:14;;;;;;;31.38;15.05;;;1.80;99.90;;;;;;5050939;28;20079;-81
2023/12/18 05:57:41;;;;;;;25.83;14.25;;;1.80;99.90;;;;;;5061900;28;20660;-80
2023/12/18 06:00:07;;;;;;;28.10;14.35;;;1.80;99.90;;;;;;5060341;28;20048;-83
2023/12/18 06:02:33;;;;;;;24.40;13.50;;;1.80;99.90;;;;;;5047902;28;20036;-82
2023/12/18 06:04:59;;;;;;;25.30;14.38;;;1.80;99.90;;;;;;5060476;28;20120;-82
2023/12/18 06:07:25;;;;;;;30.55;14.30;;;1.90;99.90;;;;;;5048664;28;20083;-80
2023/12/18 06:09:51;;;;;;;26.15;13.95;;;1.70;99.90;;;;;;5049968;28;20032;-82
2023/12/18 06:12:19;;;;;;;24.33;13.25;;;2.90;99.90;;;;;;5063004;28;20025;-83
2023/12/18 06:14:45;;;;;;;27.05;14.18;;;1.70;99.90;;;;;;5046047;28;20417;-82
2023/12/18 06:17:11;;;;;;;25.90;14.38;;;;;;;;;;5046923;28;20028;-83
2023/12/18 06:19:38;;;;;;;28.95;15.90;;;;;;;;;;5061952;28;20099;-82
2023/12/18 06:22:04;;;;;;;25.45;13.10;;;1.50;99.90;;;;;;5043824;28;20128;-84
2023/12/18 06:24:30;;;;;;;23.27;13.35;;;1.50;99.90;;;;;;5048448;28;20033;-82
2023/12/18 06:26:56;;;;;;;24.77;13.35;;;1.60;99.90;;;;;;5065738;28;20495;-84
2023/12/18 06:29:22;;;;;;;23.38;12.50;;;1.50;99.90;;;;;;5052946;28;20102;-84
2023/12/18 06:31:48;;;;;;;24.90;13.70;;;1.50;99.90;;;;;;5053266;28;20021;-81
2023/12/18 06:34:14;;;;;;;19.95;11.68;;;;;;;;;;5055011;28;20095;-82
2023/12/18 06:36:40;;;;;;;27.08;13.60;;;1.50;99.90;;;;;;5061112;28;20028;-81
2023/12/18 06:39:06;;;;;;;21.65;12.55;;;1.50;99.90;;;;;;5048444;28;20037;-83
2023/12/18 06:41:32;;;;;;;23.98;12.57;;;;;;;;;;5061410;28;20029;-82
2023/12/18 06:43:58;;;;;;;23.52;13.20;;;;;;;;;;5059614;28;20033;-79
2023/12/18 06:46:24;;;;;;;24.15;13.30;;;;;;;;;;5055358;28;20406;-80
2023/12/18 06:48:50;;;;;;;21.42;11.95;;;;;;;;;;5052425;28;20036;-80
2023/12/18 06:51:16;;;;;;;21.10;12.48;;;;;;;;;;5049939;28;20083;-82
2023/12/18 06:53:43;;;;;;;23.25;13.60;;;;;;;;;;5046404;28;20397;-85
2023/12/18 06:56:09;;;;;;;21.35;12.13;;;;;;;;;;5046695;28;20188;-82
2023/12/18 06:58:35;;;;;;;22.80;12.48;;;;;;;;;;5048367;28;20033;-84
2023/12/18 07:01:01;;;;;;;20.45;12.13;;;;;;;;;;5057184;28;20047;-84
2023/12/18 07:03:27;;;;;;;21.38;12.25;;;;;;;;;;5061986;28;20068;-82
2023/12/18 07:05:53;;;;;;;23.48;13.45;;;;;;;;;;5058788;28;20037;-82
2023/12/18 07:08:20;;;;;;;20.40;12.43;;;1.30;99.90;;;;;;5061603;28;20036;-81
2023/12/18 07:10:46;;;;;;;20.75;11.40;;;;;;;;;;5055972;28;20033;-80
2023/12/18 07:13:12;;;;;;;22.95;12.23;;;1.20;99.90;;;;;;5075775;28;20059;-84
2023/12/18 07:15:37;;;;;;;24.95;13.57;;;3.50;99.90;;;;;;5058857;28;20017;-82
2023/12/18 07:18:04;;;;;;;24.23;13.35;;;1.20;99.90;;;;;;5051228;28;20678;-82
2023/12/18 07:20:30;;;;;;;27.65;14.38;;;;;;;;;;5059664;28;20053;-81
2023/12/18 07:22:56;;;;;;;29.15;14.68;;;1.20;99.90;;;;;;5047222;28;20090;-81
2023/12/18 07:25:22;;;;;;;24.08;14.10;;;;;;;;;;5052303;28;20104;-82
2023/12/18 07:27:47;;;;;;;59.20;16.38;;;1.20;99.90;;;;;;5042749;28;20439;-81
2023/12/18 07:30:13;;;;;;;45.22;17.98;;;1.20;99.90;;;;;;5056638;28;20033;-83
2023/12/18 07:32:39;;;;;;;49.28;18.73;;;1.10;99.90;;;;;;5045779;28;20025;-82
2023/12/18 07:35:06;;;;;;;43.95;19.30;;;1.10;99.90;;;;;;5036013;28;20465;-80
2023/12/18 07:37:31;;;;;;;48.13;18.90;;;1.00;99.90;;;;;;5039366;28;20071;-80
2023/12/18 07:39:58;;;;;;;47.38;17.52;;;1.00;99.90;;;;;;5037217;28;20072;-83
2023/12/18 07:42:24;;;;;;;45.30;18.08;;;1.00;99.90;;;;;;5029586;28;20466;-80
2023/12/18 07:44:49;;;;;;;47.90;17.95;;;1.00;99.90;;;;;;5042646;28;20040;-81
2023/12/18 07:47:15;;;;;;;40.90;17.98;;;1.00;99.90;;;;;;5038570;28;20094;-80
2023/12/18 07:49:41;;;;;;;39.45;16.95;;;1.00;99.90;;;;;;5038933;28;20047;-78
2023/12/18 07:52:08;;;;;;;39.72;16.75;;;1.00;99.90;;;;;;5039321;28;20029;-82
2023/12/18 07:54:34;;;;;;;36.92;16.95;;;0.90;99.90;;;;;;5043352;28;20020;-81
2023/12/18 07:57:00;;;;;;;36.83;15.10;;;;;;;;;;5046551;28;20028;-82
2023/12/18 07:59:26;;;;;;;39.35;16.00;;;;;;;;;;5044776;28;20039;-81
2023/12/18 08:01:51;;;;;;;38.10;15.82;;;0.70;99.90;;;;;;5043307;28;21487;-84
2023/12/18 08:04:17;;;;;;;37.05;15.52;;;;;;;;;;5064384;28;20045;-79
2023/12/18 08:06:43;;;;;;;43.90;17.00;;;;;;;;;;5046644;28;20029;-83
2023/12/18 08:09:09;;;;;;;40.15;16.38;;;;;;;;;;5044497;28;20040;-80
2023/12/18 08:11:35;;;;;;;39.40;16.70;;;;;;;;;;5053524;28;20047;-81
2023/12/18 08:14:01;;;;;;;41.25;17.40;;;;;;;;;;5041578;28;20532;-79
2023/12/18 08:16:28;;;;;;;38.05;17.13;;;0.70;99.90;;;;;;5042037;28;20111;-80
2023/12/18 08:18:53;;;;;;;36.83;15.98;;;0.60;99.90;;;;;;5049779;28;20228;-82
2023/12/18 08:21:20;;;;;;;26.55;14.20;;;0.70;99.90;;;;;;5041372;28;20440;-82
2023/12/18 08:23:45;;;;;;;40.22;15.48;;;0.70;99.90;;;;;;5039338;28;20454;-79
2023/12/18 08:26:11;;;;;;;40.22;16.33;;;2.80;99.90;;;;;;5034965;28;20116;-81
2023/12/18 08:28:41;;;;;;;35.85;15.57;;;2.20;99.90;;;;;;5037910;28;20080;-81
2023/12/18 08:31:07;;;;;;;36.72;16.52;;;;;;;;;;5031987;28;20066;-81
2023/12/18 08:33:33;;;;;;;35.53;16.13;;;;;;;;;;5038711;28;20025;-81
2023/12/18 08:35:59;;;;;;;34.55;15.77;;;;;;;;;;5045578;28;20058;-82
2023/12/18 08:38:25;;;;;;;33.38;15.82;;;;;;;;;;5060322;28;20051;-81
2023/12/18 08:40:51;;;;;;;30.92;15.45;;;;;;;;;;5040836;28;20045;-79
2023/12/18 08:43:17;;;;;;;32.28;14.95;;;;;;;;;;5054479;28;20497;-82
2023/12/18 08:45:43;;;;;;;44.70;17.02;;;0.90;99.90;;;;;;5035320;28;20037;-81
2023/12/18 08:48:08;;;;;;;31.58;15.77;;;0.90;99.90;;;;;;5037431;28;20036;-82
2023/12/18 08:50:34;;;;;;;33.78;15.68;;;2.70;99.90;;;;;;5044397;28;20323;-81
2023/12/18 08:53:00;;;;;;;32.10;15.85;;;1.00;99.90;;;;;;5039506;28;20024;-82
2023/12/18 08:55:26;;;;;;;30.73;15.70;;;1.00;99.90;;;;;;5036951;28;20031;-81
2023/12/18 08:57:51;;;;;;;39.00;15.35;;;1.00;99.90;;;;;;5040907;28;20032;-80
2023/12/18 09:00:17;;;;;;;27.77;15.05;;;;;;;;;;5035841;28;20792;-81
2023/12/18 09:02:43;;;;;;;28.85;14.40;;;1.20;99.90;;;;;;5041419;28;20026;-82
2023/12/18 09:05:09;;;;;;;34.97;14.52;;;3.50;99.90;;;;;;5045473;28;20033;-79
2023/12/18 09:07:34;;;;;;;26.33;13.77;;;2.00;99.90;;;;;;5043655;28;20029;-81
2023/12/18 09:10:00;;;;;;;28.30;13.25;;;1.40;99.90;;;;;;5038486;28;20033;-83
2023/12/18 09:12:26;;;;;;;28.23;14.20;;;;;;;;;;5065631;28;20526;-82
2023/12/18 09:14:52;;;;;;;23.55;12.80;;;;;;;;;;5063742;28;20022;-80
2023/12/18 09:17:21;;;;;;;24.77;14.20;;;1.30;99.90;;;;;;5051455;28;20401;-83
2023/12/18 09:20:09;;;;;;;27.30;13.00;;;1.30;99.90;;;;;;5062101;28;20123;-82
2023/12/18 09:22:42;;;;;;;24.58;13.18;;;1.30;99.90;;;;;;5063604;28;20044;-81
2023/12/18 09:25:12;;;;;;;21.27;13.05;;;;;;;;;;5063207;28;20061;-83
2023/12/18 09:27:40;;;;;;;25.15;13.82;;;;;;;;;;5066290;28;20044;-84
2023/12/18 09:30:14;;;;;;;29.30;13.77;;;1.30;99.90;;;;;;5064889;28;20044;-85
2023/12/18 09:32:48;;;;;;;29.23;13.63;;;1.40;99.90;;;;;;5062400;28;20033;-84
2023/12/18 09:35:40;;;;;;;26.13;14.07;;;1.50;99.90;;;;;;5062565;28;20028;-84
2023/12/18 09:39:09;;;;;;;27.33;14.02;;;1.50;99.90;;;;;;5045338;28;20195;-86
2023/12/18 09:42:22;;;;;;;26.83;13.27;;;1.60;99.90;;;;;;5061317;28;20049;-83
2023/12/18 09:45:37;;;;;;;;;;;;;;;;;;;;;
2023/12/18 09:48:37;;;;;;;26.45;14.02;;;1.70;99.90;;;;;;5049391;28;20073;-84
2023/12/18 09:51:27;;;;;;;21.65;11.45;;;1.80;99.90;;;;;;5056864;28;20036;-88
2023/12/18 09:53:58;;;;;;;21.73;11.85;;;1.80;99.90;;;;;;5080467;28;20117;-84
2023/12/18 09:56:37;;;;;;;23.35;12.05;;;1.90;99.90;;;;;;5069874;28;20397;-84
2023/12/18 09:59:06;;;;;;;21.77;11.90;;;;;;;;;;5065212;28;20032;-84
2023/12/18 10:01:34;;;;;;;19.90;11.27;;;;;;;;;;5062789;28;20036;-82
2023/12/18 10:04:00;;;;;;;21.67;11.38;;;;;;;;;;5087237;28;20017;-83
2023/12/18 10:06:26;;;;;;;24.75;11.70;;;;;;;;;;5069735;28;20032;-83
2023/12/18 10:08:53;;;;;;;21.85;11.70;;;2.20;99.90;;;;;;5063989;28;20182;-82
2023/12/18 10:11:26;;;;;;;21.67;11.80;;;;;;;;;;5061294;28;20025;-84
2023/12/18 10:13:56;;;;;;;21.08;11.32;;;;;;;;;;5070070;28;20052;-88
2023/12/18 10:16:22;;;;;;;20.45;11.35;;;2.20;99.90;;;;;;5053518;28;20032;-81
2023/12/18 10:18:48;;;;;;;19.90;11.55;;;;;;;;;;5054979;28;20097;-86
2023/12/18 10:21:22;;;;;;;20.52;11.82;;;2.20;99.90;;;;;;5074612;28;20124;-83
2023/12/18 10:23:49;;;;;;;23.65;12.55;;;;;;;;;;5058357;28;20030;-83
2023/12/18 10:26:15;;;;;;;22.67;11.43;;;;;;;;;;5059819;28;20036;-82
2023/12/18 10:28:41;;;;;;;24.15;11.50;;;;;;;;;;5072291;28;20127;-83
2023/12/18 10:31:09;;;;;;;24.80;12.43;;;2.40;99.90;;;;;;5072238;28;20065;-86
2023/12/18 10:33:35;;;;;;;27.02;12.18;;;;;;;;;;5053192;28;20021;-82
2023/12/18 10:36:04;;;;;;;27.40;13.05;;;2.60;99.90;;;;;;5060978;28;20390;-84
2023/12/18 10:38:31;;;;;;;25.85;11.95;;;;;;;;;;5061896;28;20044;-84
2023/12/18 10:41:00;;;;;;;22.20;11.43;;;;;;;;;;5058886;28;20065;-82
2023/12/18 10:43:29;;;;;;;22.30;11.63;;;2.70;99.90;;;;;;5055191;28;20037;-82
2023/12/18 10:45:57;;;;;;;19.48;11.48;;;2.70;99.90;;;;;;5054332;28;20331;-81
2023/12/18 10:48:26;;;;;;;19.92;11.73;;;2.80;99.90;;;;;;5043013;28;20120;-82
2023/12/18 10:50:56;;;;;;;20.45;11.00;;;2.80;99.90;;;;;;5049998;28;20108;-81
2023/12/18 10:53:27;;;;;;;21.50;12.18;;;2.90;99.90;;;;;;5070335;28;20197;-81
2023/12/18 10:55:57;;;;;;;23.13;12.02;;;2.90;99.90;;;;;;5049620;28;20037;-82
2023/12/18 10:58:27;;;;;;;24.75;12.60;;;3.00;99.90;;;;;;5045971;28;20029;-81
2023/12/18 11:01:11;;;;;;;23.55;11.45;;;3.00;99.90;;;;;;5055265;28;20047;-84
2023/12/18 11:03:40;;;;;;;20.90;12.13;;;3.90;99.90;;;;;;5074980;28;20021;-83
2023/12/18 11:06:10;;;;;;;22.30;12.90;;;3.10;99.90;;;;;;5055263;28;20034;-83
2023/12/18 11:08:42;;;;;;;22.87;12.30;;;3.20;99.90;;;;;;5054091;28;20044;-86
2023/12/18 11:11:10;;;;;;;22.67;12.07;;;3.20;99.90;;;;;;5055323;28;20020;-83
2023/12/18 11:14:10;;;;;;;20.98;12.40;;;3.30;99.90;;;;;;5044304;28;20425;-81
2023/12/18 11:16:53;;;;;;;20.03;12.03;;;;;;;;;;5053531;28;20013;-84
2023/12/18 11:19:19;;;;;;;25.30;11.57;;;;;;;;;;5050569;28;20272;-84
2023/12/18 11:21:49;;;;;;;28.40;11.82;;;3.40;99.90;;;;;;5063594;28;20057;-83
2023/12/18 11:24:35;;;;;;;;;;;;;;;;;;;;;
2023/12/18 11:27:16;;;;;;;24.25;12.98;;;3.50;99.90;;;;;;4997700;28;20077;-83
2023/12/18 11:29:49;;;;;;;21.42;11.55;;;3.50;99.90;;;;;;5051484;28;20031;-80
2023/12/18 11:32:42;;;;;;;20.88;11.82;;;3.60;99.90;;;;;;5050663;28;20031;-84
2023/12/18 11:35:13;;;;;;;21.42;12.00;;;3.70;99.90;;;;;;5049190;28;20071;-85
2023/12/18 11:37:50;;;;;;;20.40;11.63;;;3.70;99.90;;;;;;5054319;22;20049;-82
2023/12/18 11:40:49;;;;;;;20.77;11.95;;;3.60;99.90;;;;;;5008603;28;20037;-80
2023/12/18 11:43:36;;;;;;;22.65;11.68;;;3.80;99.90;;;;;;4981088;28;20081;-81
2023/12/18 11:46:02;;;;;;;22.55;11.88;;;;;;;;;;4985568;28;20038;-80
2023/12/18 11:48:28;;;;;;;23.33;12.18;;;;;;;;;;5008945;28;20069;-86
2023/12/18 11:50:54;;;;;;;20.77;11.73;;;;;;;;;;5006562;28;20022;-82
2023/12/18 11:53:23;;;;;;;28.90;12.98;;;3.90;99.90;;;;;;5008731;28;20050;-82
2023/12/18 11:55:53;;;;;;;19.92;12.10;;;4.00;99.90;;;;;;4987688;28;20027;-79
2023/12/18 11:58:24;;;;;;;23.98;12.35;;;4.00;99.90;;;;;;4993456;28;20042;-83
2023/12/18 12:00:50;;;;;;;25.27;12.65;;;;;;;;;;4996161;28;20029;-81
2023/12/18 12:03:16;;;;;;;23.73;12.55;;;;;;;;;;5006381;28;20078;-81
2023/12/18 12:05:43;;;;;;;23.50;12.38;;;;;;;;;;5010548;28;20028;-81
2023/12/18 12:08:09;;;;;;;23.10;13.02;;;4.20;99.90;;;;;;4996093;28;20086;-84
2023/12/18 12:10:46;;;;;;;21.35;12.60;;;4.30;99.90;;;;;;5007882;28;20030;-86
2023/12/18 12:13:18;;;;;;;22.60;11.95;;;;;;;;;;4997241;28;20030;-81
2023/12/18 12:15:58;;;;;;;24.75;12.60;;;4.40;99.90;;;;;;4997343;28;20026;-80
2023/12/18 12:18:29;;;;;;;22.63;12.95;;;4.40;99.90;;;;;;4994790;28;21377;-81
2023/12/18 12:20:56;;;;;;;21.83;12.90;;;4.50;99.90;;;;;;4996935;28;20137;-81
2023/12/18 12:23:23;;;;;;;20.92;11.85;;;4.60;99.90;;;;;;4994938;28;20030;-80
2023/12/18 12:25:50;;;;;;;21.98;11.90;;;4.60;99.90;;;;;;4996709;28;20200;-82
2023/12/18 12:28:17;;;;;;;20.40;11.65;;;;;;;;;;4994561;28;20137;-81
2023/12/18 12:30:46;;;;;;;21.65;12.88;;;;;;;;;;4993574;28;20116;-80
2023/12/18 12:33:12;;;;;;;26.05;11.98;;;;;;;;;;4990613;28;20060;-81
2023/12/18 12:35:39;;;;;;;21.92;12.20;;;;;;;;;;4993798;28;20038;-83
2023/12/18 12:38:05;;;;;;;24.17;12.68;;;4.70;99.90;;;;;;5010554;28;20496;-83
2023/12/18 12:40:44;;;;;;;24.42;12.85;;;4.80;99.90;;;;;;4994550;28;20029;-85
2023/12/18 12:43:11;;;;;;;23.15;13.00;;;4.80;99.90;;;;;;4983186;28;20026;-82
2023/12/18 12:45:38;;;;;;;23.60;12.75;;;6.10;99.90;;;;;;4993409;28;20022;-84
2023/12/18 12:48:12;;;;;;;23.33;13.15;;;7.00;99.90;;;;;;4991494;28;20033;-80
2023/12/18 12:50:39;;;;;;;22.40;12.23;;;7.30;99.90;;;;;;4991262;28;20026;-88
2023/12/18 12:53:11;;;;;;;22.92;12.98;;;6.40;99.90;;;;;;4988880;28;20042;-82
2023/12/18 12:55:40;;;;;;;22.55;12.68;;;7.00;99.90;;;;;;5000045;28;20559;-83
2023/12/18 12:58:07;;;;;;;22.15;12.55;;;7.20;99.90;;;;;;5009283;28;20034;-83
2023/12/18 13:00:34;;;;;;;21.92;11.65;;;7.10;99.90;;;;;;4994434;28;20018;-81
2023/12/18 13:02:59;;;;;;;22.27;12.20;;;7.30;99.90;;;;;;4995648;28;20108;-84
2023/12/18 13:05:25;;;;;;;23.17;12.88;;;7.10;99.90;;;;;;4992336;28;20477;-81
2023/12/18 13:07:52;;;;;;;25.45;13.07;;;4.60;99.90;;;;;;4991515;28;20030;-81